sensor_id;sensor_type;location;lat;lon;timestamp;P1;durP1;ratioP1;P2;durP2;ratioP2
46222;SDS011;31943;51.410;7.564;2023-05-14T00:00:54;7.25;;;4.40;;
46222;SDS011;31943;51.410;7.564;2023-05-14T00:03:20;5.53;;;4.25;;
46222;SDS011;31943;51.410;7.564;2023-05-14T00:05:46;4.38;;;3.60;;
46222;SDS011;31943;51.410;7.564;2023-05-14T00:08:14;6.18;;;4.55;;
46222;SDS011;31943;51.410;7.564;2023-05-14T00:10:39;6.70;;;4.25;;
46222;SDS011;31943;51.410;7.564;2023-05-14T00:13:05;4.85;;;3.90;;
46222;SDS011;31943;51.410;7.564;2023-05-14T00:15:30;4.50;;;4.05;;
46222;SDS011;31943;51.410;7.564;2023-05-14T00:17:56;5.55;;;4.55;;
46222;SDS011;31943;51.410;7.564;2023-05-14T00:20:22;4.55;;;4.15;;
46222;SDS011;31943;51.410;7.564;2023-05-14T00:22:48;5.55;;;4.55;;
46222;SDS011;31943;51.410;7.564;2023-05-14T00:25:15;8.40;;;4.47;;
46222;SDS011;31943;51.410;7.564;2023-05-14T00:27:41;4.68;;;4.20;;
46222;SDS011;31943;51.410;7.564;2023-05-14T00:30:06;4.47;;;4.07;;
46222;SDS011;31943;51.410;7.564;2023-05-14T00:32:32;6.13;;;4.20;;
46222;SDS011;31943;51.410;7.564;2023-05-14T00:34:58;4.75;;;3.97;;
46222;SDS011;31943;51.410;7.564;2023-05-14T00:37:23;4.82;;;3.78;;
46222;SDS011;31943;51.410;7.564;2023-05-14T00:39:49;5.35;;;4.00;;
46222;SDS011;31943;51.410;7.564;2023-05-14T00:42:17;4.28;;;3.97;;
46222;SDS011;31943;51.410;7.564;2023-05-14T00:44:42;5.05;;;4.25;;
46222;SDS011;31943;51.410;7.564;2023-05-14T00:47:08;5.40;;;4.90;;
46222;SDS011;31943;51.410;7.564;2023-05-14T00:49:33;5.65;;;5.10;;
46222;SDS011;31943;51.410;7.564;2023-05-14T00:51:59;7.00;;;4.00;;
46222;SDS011;31943;51.410;7.564;2023-05-14T00:54:25;4.72;;;4.32;;
46222;SDS011;31943;51.410;7.564;2023-05-14T00:56:52;7.22;;;4.97;;
46222;SDS011;31943;51.410;7.564;2023-05-14T00:59:20;5.85;;;4.63;;
46222;SDS011;31943;51.410;7.564;2023-05-14T01:01:46;5.38;;;4.53;;
46222;SDS011;31943;51.410;7.564;2023-05-14T01:04:11;6.15;;;4.50;;
46222;SDS011;31943;51.410;7.564;2023-05-14T01:06:40;6.75;;;4.50;;
46222;SDS011;31943;51.410;7.564;2023-05-14T01:09:16;7.57;;;5.43;;
46222;SDS011;31943;51.410;7.564;2023-05-14T01:11:48;7.05;;;4.97;;
46222;SDS011;31943;51.410;7.564;2023-05-14T01:14:22;4.93;;;4.07;;
46222;SDS011;31943;51.410;7.564;2023-05-14T01:16:55;5.00;;;4.32;;
46222;SDS011;31943;51.410;7.564;2023-05-14T01:19:25;6.68;;;4.63;;
46222;SDS011;31943;51.410;7.564;2023-05-14T01:21:58;4.85;;;4.15;;
46222;SDS011;31943;51.410;7.564;2023-05-14T01:24:24;5.72;;;4.28;;
46222;SDS011;31943;51.410;7.564;2023-05-14T01:26:50;6.03;;;4.80;;
46222;SDS011;31943;51.410;7.564;2023-05-14T01:29:17;5.72;;;4.50;;
46222;SDS011;31943;51.410;7.564;2023-05-14T01:31:45;5.05;;;4.57;;
46222;SDS011;31943;51.410;7.564;2023-05-14T01:34:13;6.82;;;4.43;;
46222;SDS011;31943;51.410;7.564;2023-05-14T01:36:40;4.97;;;4.50;;
46222;SDS011;31943;51.410;7.564;2023-05-14T01:39:08;5.32;;;4.50;;
46222;SDS011;31943;51.410;7.564;2023-05-14T01:41:36;4.47;;;4.03;;
46222;SDS011;31943;51.410;7.564;2023-05-14T01:44:02;5.28;;;4.55;;
46222;SDS011;31943;51.410;7.564;2023-05-14T01:46:30;5.75;;;4.53;;
46222;SDS011;31943;51.410;7.564;2023-05-14T01:48:57;5.65;;;5.13;;
46222;SDS011;31943;51.410;7.564;2023-05-14T01:51:23;8.30;;;4.95;;
46222;SDS011;31943;51.410;7.564;2023-05-14T01:53:48;5.85;;;4.97;;
46222;SDS011;31943;51.410;7.564;2023-05-14T01:56:15;6.57;;;4.82;;
46222;SDS011;31943;51.410;7.564;2023-05-14T01:58:41;5.88;;;5.25;;
46222;SDS011;31943;51.410;7.564;2023-05-14T02:01:07;5.45;;;4.95;;
46222;SDS011;31943;51.410;7.564;2023-05-14T02:03:32;6.38;;;5.38;;
46222;SDS011;31943;51.410;7.564;2023-05-14T02:05:58;5.65;;;4.97;;
46222;SDS011;31943;51.410;7.564;2023-05-14T02:08:23;7.25;;;4.97;;
46222;SDS011;31943;51.410;7.564;2023-05-14T02:10:49;5.63;;;4.97;;
46222;SDS011;31943;51.410;7.564;2023-05-14T02:13:16;5.60;;;4.93;;
46222;SDS011;31943;51.410;7.564;2023-05-14T02:15:41;5.32;;;4.82;;
46222;SDS011;31943;51.410;7.564;2023-05-14T02:18:07;5.18;;;4.68;;
46222;SDS011;31943;51.410;7.564;2023-05-14T02:20:34;7.80;;;5.38;;
46222;SDS011;31943;51.410;7.564;2023-05-14T02:22:59;8.05;;;5.15;;
46222;SDS011;31943;51.410;7.564;2023-05-14T02:25:25;5.40;;;4.95;;
46222;SDS011;31943;51.410;7.564;2023-05-14T02:27:51;9.15;;;4.90;;
46222;SDS011;31943;51.410;7.564;2023-05-14T02:30:18;5.80;;;5.28;;
46222;SDS011;31943;51.410;7.564;2023-05-14T02:32:43;5.40;;;4.90;;
46222;SDS011;31943;51.410;7.564;2023-05-14T02:35:09;6.15;;;5.00;;
46222;SDS011;31943;51.410;7.564;2023-05-14T02:37:35;6.10;;;4.80;;
46222;SDS011;31943;51.410;7.564;2023-05-14T02:40:00;5.43;;;4.93;;
46222;SDS011;31943;51.410;7.564;2023-05-14T02:42:26;5.50;;;5.00;;
46222;SDS011;31943;51.410;7.564;2023-05-14T02:44:51;4.95;;;4.50;;
46222;SDS011;31943;51.410;7.564;2023-05-14T02:47:18;6.38;;;5.20;;
46222;SDS011;31943;51.410;7.564;2023-05-14T02:49:44;6.30;;;4.47;;
46222;SDS011;31943;51.410;7.564;2023-05-14T02:52:09;5.15;;;4.57;;
46222;SDS011;31943;51.410;7.564;2023-05-14T02:54:35;5.75;;;5.20;;
46222;SDS011;31943;51.410;7.564;2023-05-14T02:57:01;6.07;;;4.78;;
46222;SDS011;31943;51.410;7.564;2023-05-14T02:59:26;5.30;;;4.80;;
46222;SDS011;31943;51.410;7.564;2023-05-14T03:01:52;7.60;;;5.00;;
46222;SDS011;31943;51.410;7.564;2023-05-14T03:04:19;6.88;;;4.22;;
46222;SDS011;31943;51.410;7.564;2023-05-14T03:06:44;4.72;;;4.22;;
46222;SDS011;31943;51.410;7.564;2023-05-14T03:09:10;4.55;;;4.10;;
46222;SDS011;31943;51.410;7.564;2023-05-14T03:11:36;5.63;;;4.57;;
46222;SDS011;31943;51.410;7.564;2023-05-14T03:14:02;5.47;;;4.95;;
46222;SDS011;31943;51.410;7.564;2023-05-14T03:16:28;5.43;;;4.57;;
46222;SDS011;31943;51.410;7.564;2023-05-14T03:18:53;7.43;;;5.20;;
46222;SDS011;31943;51.410;7.564;2023-05-14T03:21:20;5.95;;;5.45;;
46222;SDS011;31943;51.410;7.564;2023-05-14T03:23:46;5.55;;;5.05;;
46222;SDS011;31943;51.410;7.564;2023-05-14T03:26:12;6.43;;;5.35;;
46222;SDS011;31943;51.410;7.564;2023-05-14T03:28:37;6.22;;;5.63;;
46222;SDS011;31943;51.410;7.564;2023-05-14T03:31:03;6.05;;;5.43;;
46222;SDS011;31943;51.410;7.564;2023-05-14T03:33:29;6.43;;;4.90;;
46222;SDS011;31943;51.410;7.564;2023-05-14T03:35:55;5.78;;;5.32;;
46222;SDS011;31943;51.410;7.564;2023-05-14T03:38:22;7.20;;;5.85;;
46222;SDS011;31943;51.410;7.564;2023-05-14T03:40:48;8.55;;;5.90;;
46222;SDS011;31943;51.410;7.564;2023-05-14T03:43:13;7.03;;;6.32;;
46222;SDS011;31943;51.410;7.564;2023-05-14T03:45:39;6.63;;;6.03;;
46222;SDS011;31943;51.410;7.564;2023-05-14T03:48:04;6.10;;;5.50;;
46222;SDS011;31943;51.410;7.564;2023-05-14T03:50:30;5.88;;;4.88;;
46222;SDS011;31943;51.410;7.564;2023-05-14T03:52:56;6.30;;;5.72;;
46222;SDS011;31943;51.410;7.564;2023-05-14T03:55:23;6.53;;;5.93;;
46222;SDS011;31943;51.410;7.564;2023-05-14T03:57:48;7.95;;;5.45;;
46222;SDS011;31943;51.410;7.564;2023-05-14T04:00:14;7.50;;;6.07;;
46222;SDS011;31943;51.410;7.564;2023-05-14T04:02:40;7.43;;;5.45;;
46222;SDS011;31943;51.410;7.564;2023-05-14T04:05:06;8.55;;;5.55;;
46222;SDS011;31943;51.410;7.564;2023-05-14T04:07:32;5.95;;;5.40;;
46222;SDS011;31943;51.410;7.564;2023-05-14T04:09:58;5.90;;;5.32;;
46222;SDS011;31943;51.410;7.564;2023-05-14T04:12:25;7.32;;;5.20;;
46222;SDS011;31943;51.410;7.564;2023-05-14T04:14:50;6.47;;;5.22;;
46222;SDS011;31943;51.410;7.564;2023-05-14T04:17:16;7.70;;;5.90;;
46222;SDS011;31943;51.410;7.564;2023-05-14T04:19:41;6.93;;;5.18;;
46222;SDS011;31943;51.410;7.564;2023-05-14T04:22:07;5.65;;;5.15;;
46222;SDS011;31943;51.410;7.564;2023-05-14T04:24:32;6.05;;;5.50;;
46222;SDS011;31943;51.410;7.564;2023-05-14T04:26:58;5.78;;;5.10;;
46222;SDS011;31943;51.410;7.564;2023-05-14T04:29:25;7.00;;;5.55;;
46222;SDS011;31943;51.410;7.564;2023-05-14T04:31:52;5.40;;;5.00;;
46222;SDS011;31943;51.410;7.564;2023-05-14T04:34:17;5.78;;;5.03;;
46222;SDS011;31943;51.410;7.564;2023-05-14T04:36:43;5.53;;;5.03;;
46222;SDS011;31943;51.410;7.564;2023-05-14T04:39:08;5.93;;;4.93;;
46222;SDS011;31943;51.410;7.564;2023-05-14T04:41:34;6.72;;;5.20;;
46222;SDS011;31943;51.410;7.564;2023-05-14T04:43:59;6.93;;;5.25;;
46222;SDS011;31943;51.410;7.564;2023-05-14T04:46:26;6.75;;;5.57;;
46222;SDS011;31943;51.410;7.564;2023-05-14T04:48:52;5.85;;;5.03;;
46222;SDS011;31943;51.410;7.564;2023-05-14T04:51:18;7.65;;;5.07;;
46222;SDS011;31943;51.410;7.564;2023-05-14T04:53:44;6.13;;;5.13;;
46222;SDS011;31943;51.410;7.564;2023-05-14T04:56:10;6.15;;;5.65;;
46222;SDS011;31943;51.410;7.564;2023-05-14T04:58:35;7.78;;;5.78;;
46222;SDS011;31943;51.410;7.564;2023-05-14T05:01:01;6.68;;;5.97;;
46222;SDS011;31943;51.410;7.564;2023-05-14T05:03:30;7.40;;;5.47;;
46222;SDS011;31943;51.410;7.564;2023-05-14T05:05:56;6.70;;;5.88;;
46222;SDS011;31943;51.410;7.564;2023-05-14T05:08:21;6.03;;;5.43;;
46222;SDS011;31943;51.410;7.564;2023-05-14T05:10:47;7.13;;;6.50;;
46222;SDS011;31943;51.410;7.564;2023-05-14T05:13:13;6.93;;;5.95;;
46222;SDS011;31943;51.410;7.564;2023-05-14T05:15:38;6.70;;;6.10;;
46222;SDS011;31943;51.410;7.564;2023-05-14T05:18:04;8.48;;;7.68;;
46222;SDS011;31943;51.410;7.564;2023-05-14T05:20:31;9.10;;;6.43;;
46222;SDS011;31943;51.410;7.564;2023-05-14T05:22:57;8.80;;;8.00;;
46222;SDS011;31943;51.410;7.564;2023-05-14T05:25:22;10.70;;;8.73;;
46222;SDS011;31943;51.410;7.564;2023-05-14T05:27:48;9.57;;;8.68;;
46222;SDS011;31943;51.410;7.564;2023-05-14T05:30:13;9.63;;;8.73;;
46222;SDS011;31943;51.410;7.564;2023-05-14T05:32:39;11.45;;;10.48;;
46222;SDS011;31943;51.410;7.564;2023-05-14T05:35:05;12.85;;;11.57;;
46222;SDS011;31943;51.410;7.564;2023-05-14T05:37:32;12.32;;;10.93;;
46222;SDS011;31943;51.410;7.564;2023-05-14T05:39:58;12.02;;;10.70;;
46222;SDS011;31943;51.410;7.564;2023-05-14T05:42:25;11.00;;;9.73;;
46222;SDS011;31943;51.410;7.564;2023-05-14T05:44:50;10.70;;;9.35;;
46222;SDS011;31943;51.410;7.564;2023-05-14T05:47:16;11.90;;;10.68;;
46222;SDS011;31943;51.410;7.564;2023-05-14T05:49:41;11.27;;;9.80;;
46222;SDS011;31943;51.410;7.564;2023-05-14T05:52:07;9.32;;;8.52;;
46222;SDS011;31943;51.410;7.564;2023-05-14T05:54:34;9.38;;;8.52;;
46222;SDS011;31943;51.410;7.564;2023-05-14T05:57:00;12.07;;;10.75;;
46222;SDS011;31943;51.410;7.564;2023-05-14T05:59:25;10.77;;;9.38;;
46222;SDS011;31943;51.410;7.564;2023-05-14T06:01:51;11.73;;;10.55;;
46222;SDS011;31943;51.410;7.564;2023-05-14T06:04:16;11.85;;;9.75;;
46222;SDS011;31943;51.410;7.564;2023-05-14T06:06:42;11.23;;;10.10;;
46222;SDS011;31943;51.410;7.564;2023-05-14T06:09:07;9.05;;;8.25;;
46222;SDS011;31943;51.410;7.564;2023-05-14T06:11:35;10.07;;;9.18;;
46222;SDS011;31943;51.410;7.564;2023-05-14T06:14:00;11.82;;;8.90;;
46222;SDS011;31943;51.410;7.564;2023-05-14T06:16:26;10.65;;;9.52;;
46222;SDS011;31943;51.410;7.564;2023-05-14T06:18:51;13.02;;;9.93;;
46222;SDS011;31943;51.410;7.564;2023-05-14T06:21:17;11.32;;;9.27;;
46222;SDS011;31943;51.410;7.564;2023-05-14T06:23:42;10.40;;;9.40;;
46222;SDS011;31943;51.410;7.564;2023-05-14T06:26:08;10.68;;;9.77;;
46222;SDS011;31943;51.410;7.564;2023-05-14T06:28:35;10.15;;;9.13;;
46222;SDS011;31943;51.410;7.564;2023-05-14T06:31:01;10.00;;;9.10;;
46222;SDS011;31943;51.410;7.564;2023-05-14T06:33:27;10.98;;;9.10;;
46222;SDS011;31943;51.410;7.564;2023-05-14T06:35:55;12.48;;;9.45;;
46222;SDS011;31943;51.410;7.564;2023-05-14T06:38:22;9.60;;;8.70;;
46222;SDS011;31943;51.410;7.564;2023-05-14T06:40:47;9.73;;;8.82;;
46222;SDS011;31943;51.410;7.564;2023-05-14T06:43:13;10.07;;;9.07;;
46222;SDS011;31943;51.410;7.564;2023-05-14T06:45:40;10.35;;;8.80;;
46222;SDS011;31943;51.410;7.564;2023-05-14T06:48:05;10.00;;;9.10;;
46222;SDS011;31943;51.410;7.564;2023-05-14T06:50:31;12.40;;;8.73;;
46222;SDS011;31943;51.410;7.564;2023-05-14T06:52:57;11.40;;;8.75;;
46222;SDS011;31943;51.410;7.564;2023-05-14T06:55:22;9.63;;;8.25;;
46222;SDS011;31943;51.410;7.564;2023-05-14T06:57:48;9.60;;;8.65;;
46222;SDS011;31943;51.410;7.564;2023-05-14T07:00:14;8.52;;;7.72;;
46222;SDS011;31943;51.410;7.564;2023-05-14T07:02:41;8.48;;;7.57;;
46222;SDS011;31943;51.410;7.564;2023-05-14T07:05:07;9.70;;;8.82;;
46222;SDS011;31943;51.410;7.564;2023-05-14T07:07:33;10.15;;;8.88;;
46222;SDS011;31943;51.410;7.564;2023-05-14T07:09:58;9.55;;;8.63;;
46222;SDS011;31943;51.410;7.564;2023-05-14T07:12:25;9.38;;;8.30;;
46222;SDS011;31943;51.410;7.564;2023-05-14T07:14:50;8.90;;;8.10;;
46222;SDS011;31943;51.410;7.564;2023-05-14T07:17:16;9.13;;;8.23;;
46222;SDS011;31943;51.410;7.564;2023-05-14T07:19:43;8.82;;;7.93;;
46222;SDS011;31943;51.410;7.564;2023-05-14T07:22:08;9.27;;;8.00;;
46222;SDS011;31943;51.410;7.564;2023-05-14T07:24:34;8.65;;;7.72;;
46222;SDS011;31943;51.410;7.564;2023-05-14T07:27:00;9.98;;;7.75;;
46222;SDS011;31943;51.410;7.564;2023-05-14T07:29:25;8.93;;;8.13;;
46222;SDS011;31943;51.410;7.564;2023-05-14T07:31:51;8.77;;;7.88;;
46222;SDS011;31943;51.410;7.564;2023-05-14T07:34:16;8.90;;;8.00;;
46222;SDS011;31943;51.410;7.564;2023-05-14T07:36:43;9.20;;;7.80;;
46222;SDS011;31943;51.410;7.564;2023-05-14T07:39:09;9.13;;;7.88;;
46222;SDS011;31943;51.410;7.564;2023-05-14T07:41:35;8.77;;;7.97;;
46222;SDS011;31943;51.410;7.564;2023-05-14T07:44:01;8.50;;;7.60;;
46222;SDS011;31943;51.410;7.564;2023-05-14T07:46:26;7.82;;;7.10;;
46222;SDS011;31943;51.410;7.564;2023-05-14T07:48:52;8.73;;;7.15;;
46222;SDS011;31943;51.410;7.564;2023-05-14T07:51:17;7.63;;;6.85;;
46222;SDS011;31943;51.410;7.564;2023-05-14T07:53:45;8.07;;;7.05;;
46222;SDS011;31943;51.410;7.564;2023-05-14T07:56:10;6.57;;;6.00;;
46222;SDS011;31943;51.410;7.564;2023-05-14T07:58:36;7.65;;;5.95;;
46222;SDS011;31943;51.410;7.564;2023-05-14T08:01:01;6.30;;;5.07;;
46222;SDS011;31943;51.410;7.564;2023-05-14T08:03:27;6.47;;;5.88;;
46222;SDS011;31943;51.410;7.564;2023-05-14T08:05:53;8.38;;;5.75;;
46222;SDS011;31943;51.410;7.564;2023-05-14T08:08:18;5.72;;;4.78;;
46222;SDS011;31943;51.410;7.564;2023-05-14T08:10:45;9.05;;;8.20;;
46222;SDS011;31943;51.410;7.564;2023-05-14T08:13:11;4.25;;;3.80;;
46222;SDS011;31943;51.410;7.564;2023-05-14T08:15:36;4.88;;;4.20;;
46222;SDS011;31943;51.410;7.564;2023-05-14T08:18:02;5.35;;;3.88;;
46222;SDS011;31943;51.410;7.564;2023-05-14T08:20:28;4.63;;;3.50;;
46222;SDS011;31943;51.410;7.564;2023-05-14T08:22:54;3.70;;;3.35;;
46222;SDS011;31943;51.410;7.564;2023-05-14T08:25:20;5.00;;;3.80;;
46222;SDS011;31943;51.410;7.564;2023-05-14T08:27:47;5.65;;;4.45;;
46222;SDS011;31943;51.410;7.564;2023-05-14T08:30:13;4.78;;;3.70;;
46222;SDS011;31943;51.410;7.564;2023-05-14T08:32:39;2.72;;;2.47;;
46222;SDS011;31943;51.410;7.564;2023-05-14T08:35:05;3.90;;;2.78;;
46222;SDS011;31943;51.410;7.564;2023-05-14T08:37:31;3.97;;;2.40;;
46222;SDS011;31943;51.410;7.564;2023-05-14T08:39:56;3.33;;;2.38;;
46222;SDS011;31943;51.410;7.564;2023-05-14T08:42:22;3.42;;;2.50;;
46222;SDS011;31943;51.410;7.564;2023-05-14T08:44:52;4.75;;;2.55;;
46222;SDS011;31943;51.410;7.564;2023-05-14T08:47:21;3.80;;;3.17;;
46222;SDS011;31943;51.410;7.564;2023-05-14T08:49:51;2.40;;;2.10;;
46222;SDS011;31943;51.410;7.564;2023-05-14T08:54:46;2.53;;;2.33;;
46222;SDS011;31943;51.410;7.564;2023-05-14T08:57:14;2.47;;;2.28;;
46222;SDS011;31943;51.410;7.564;2023-05-14T08:59:44;1.85;;;1.75;;
46222;SDS011;31943;51.410;7.564;2023-05-14T09:02:11;3.10;;;2.80;;
46222;SDS011;31943;51.410;7.564;2023-05-14T09:04:40;2.57;;;2.23;;
46222;SDS011;31943;51.410;7.564;2023-05-14T09:07:06;2.55;;;2.00;;
46222;SDS011;31943;51.410;7.564;2023-05-14T09:09:32;2.05;;;1.67;;
46222;SDS011;31943;51.410;7.564;2023-05-14T09:11:58;3.20;;;2.10;;
46222;SDS011;31943;51.410;7.564;2023-05-14T09:14:25;5.53;;;2.80;;
46222;SDS011;31943;51.410;7.564;2023-05-14T09:16:50;3.22;;;1.75;;
46222;SDS011;31943;51.410;7.564;2023-05-14T09:19:17;1.90;;;1.70;;
46222;SDS011;31943;51.410;7.564;2023-05-14T09:21:44;3.47;;;1.95;;
46222;SDS011;31943;51.410;7.564;2023-05-14T09:24:17;3.00;;;2.47;;
46222;SDS011;31943;51.410;7.564;2023-05-14T09:26:43;1.77;;;1.60;;
46222;SDS011;31943;51.410;7.564;2023-05-14T09:29:09;3.20;;;1.42;;
46222;SDS011;31943;51.410;7.564;2023-05-14T09:31:35;3.25;;;1.40;;
46222;SDS011;31943;51.410;7.564;2023-05-14T09:34:00;2.97;;;1.95;;
46222;SDS011;31943;51.410;7.564;2023-05-14T09:36:28;2.03;;;1.58;;
46222;SDS011;31943;51.410;7.564;2023-05-14T09:38:55;1.92;;;1.13;;
46222;SDS011;31943;51.410;7.564;2023-05-14T09:41:21;2.78;;;1.40;;
46222;SDS011;31943;51.410;7.564;2023-05-14T09:43:47;1.52;;;1.23;;
46222;SDS011;31943;51.410;7.564;2023-05-14T09:46:13;2.53;;;1.30;;
46222;SDS011;31943;51.410;7.564;2023-05-14T09:48:38;1.63;;;1.35;;
46222;SDS011;31943;51.410;7.564;2023-05-14T09:51:04;2.03;;;1.30;;
46222;SDS011;31943;51.410;7.564;2023-05-14T09:53:31;4.45;;;1.70;;
46222;SDS011;31943;51.410;7.564;2023-05-14T09:55:57;2.53;;;1.40;;
46222;SDS011;31943;51.410;7.564;2023-05-14T09:58:23;2.55;;;1.70;;
46222;SDS011;31943;51.410;7.564;2023-05-14T10:00:48;2.88;;;1.88;;
46222;SDS011;31943;51.410;7.564;2023-05-14T10:03:15;2.03;;;1.60;;
46222;SDS011;31943;51.410;7.564;2023-05-14T10:05:43;1.83;;;1.60;;
46222;SDS011;31943;51.410;7.564;2023-05-14T10:08:11;1.80;;;1.50;;
46222;SDS011;31943;51.410;7.564;2023-05-14T10:10:45;2.25;;;1.92;;
46222;SDS011;31943;51.410;7.564;2023-05-14T10:13:15;1.77;;;1.40;;
46222;SDS011;31943;51.410;7.564;2023-05-14T10:15:47;2.25;;;2.05;;
46222;SDS011;31943;51.410;7.564;2023-05-14T10:18:16;1.50;;;1.40;;
46222;SDS011;31943;51.410;7.564;2023-05-14T10:20:44;2.92;;;1.83;;
46222;SDS011;31943;51.410;7.564;2023-05-14T10:23:12;1.75;;;1.35;;
46222;SDS011;31943;51.410;7.564;2023-05-14T10:25:38;2.70;;;1.65;;
46222;SDS011;31943;51.410;7.564;2023-05-14T10:28:06;3.25;;;1.60;;
46222;SDS011;31943;51.410;7.564;2023-05-14T10:30:32;3.15;;;1.40;;
46222;SDS011;31943;51.410;7.564;2023-05-14T10:33:04;2.03;;;1.45;;
46222;SDS011;31943;51.410;7.564;2023-05-14T10:35:31;2.55;;;1.73;;
46222;SDS011;31943;51.410;7.564;2023-05-14T10:38:15;1.88;;;1.52;;
46222;SDS011;31943;51.410;7.564;2023-05-14T10:40:41;1.88;;;1.52;;
46222;SDS011;31943;51.410;7.564;2023-05-14T10:43:08;2.95;;;1.60;;
46222;SDS011;31943;51.410;7.564;2023-05-14T10:45:35;2.17;;;1.50;;
46222;SDS011;31943;51.410;7.564;2023-05-14T10:48:01;1.80;;;1.50;;
46222;SDS011;31943;51.410;7.564;2023-05-14T10:50:27;1.90;;;1.70;;
46222;SDS011;31943;51.410;7.564;2023-05-14T10:52:54;1.60;;;1.50;;
46222;SDS011;31943;51.410;7.564;2023-05-14T10:55:20;1.80;;;1.65;;
46222;SDS011;31943;51.410;7.564;2023-05-14T10:57:46;2.35;;;1.80;;
46222;SDS011;31943;51.410;7.564;2023-05-14T11:00:15;1.77;;;1.67;;
46222;SDS011;31943;51.410;7.564;2023-05-14T11:02:42;2.75;;;1.80;;
46222;SDS011;31943;51.410;7.564;2023-05-14T11:05:09;3.08;;;2.03;;
46222;SDS011;31943;51.410;7.564;2023-05-14T11:07:36;2.17;;;1.50;;
46222;SDS011;31943;51.410;7.564;2023-05-14T11:10:03;3.40;;;1.98;;
46222;SDS011;31943;51.410;7.564;2023-05-14T11:12:29;1.85;;;1.60;;
46222;SDS011;31943;51.410;7.564;2023-05-14T11:14:56;1.50;;;1.38;;
46222;SDS011;31943;51.410;7.564;2023-05-14T11:17:24;3.08;;;1.80;;
46222;SDS011;31943;51.410;7.564;2023-05-14T11:19:50;1.75;;;1.65;;
46222;SDS011;31943;51.410;7.564;2023-05-14T11:22:15;2.60;;;2.00;;
46222;SDS011;31943;51.410;7.564;2023-05-14T11:24:41;2.15;;;1.70;;
46222;SDS011;31943;51.410;7.564;2023-05-14T11:27:07;3.92;;;1.70;;
46222;SDS011;31943;51.410;7.564;2023-05-14T11:29:32;2.72;;;1.70;;
46222;SDS011;31943;51.410;7.564;2023-05-14T11:31:58;2.60;;;1.98;;
46222;SDS011;31943;51.410;7.564;2023-05-14T11:34:25;3.10;;;2.15;;
46222;SDS011;31943;51.410;7.564;2023-05-14T11:36:51;2.05;;;1.70;;
46222;SDS011;31943;51.410;7.564;2023-05-14T11:39:17;2.70;;;1.85;;
46222;SDS011;31943;51.410;7.564;2023-05-14T11:41:42;4.13;;;2.10;;
46222;SDS011;31943;51.410;7.564;2023-05-14T11:44:09;2.17;;;1.55;;
46222;SDS011;31943;51.410;7.564;2023-05-14T11:46:35;2.63;;;1.30;;
46222;SDS011;31943;51.410;7.564;2023-05-14T11:49:02;1.50;;;1.40;;
46222;SDS011;31943;51.410;7.564;2023-05-14T11:51:29;1.70;;;1.60;;
46222;SDS011;31943;51.410;7.564;2023-05-14T11:53:55;1.73;;;1.40;;
46222;SDS011;31943;51.410;7.564;2023-05-14T11:56:21;1.85;;;1.52;;
46222;SDS011;31943;51.410;7.564;2023-05-14T11:58:47;2.03;;;1.58;;
46222;SDS011;31943;51.410;7.564;2023-05-14T12:01:20;1.98;;;1.50;;
46222;SDS011;31943;51.410;7.564;2023-05-14T12:03:45;1.52;;;1.23;;
46222;SDS011;31943;51.410;7.564;2023-05-14T12:06:11;2.45;;;1.25;;
46222;SDS011;31943;51.410;7.564;2023-05-14T12:08:38;1.50;;;1.40;;
46222;SDS011;31943;51.410;7.564;2023-05-14T12:11:04;4.28;;;1.30;;
46222;SDS011;31943;51.410;7.564;2023-05-14T12:13:29;1.45;;;1.35;;
46222;SDS011;31943;51.410;7.564;2023-05-14T12:15:56;1.50;;;1.30;;
46222;SDS011;31943;51.410;7.564;2023-05-14T12:18:23;2.50;;;1.42;;
46222;SDS011;31943;51.410;7.564;2023-05-14T12:20:49;2.25;;;1.50;;
46222;SDS011;31943;51.410;7.564;2023-05-14T12:23:15;1.40;;;1.30;;
46222;SDS011;31943;51.410;7.564;2023-05-14T12:25:49;1.60;;;1.30;;
46222;SDS011;31943;51.410;7.564;2023-05-14T12:28:15;1.50;;;1.10;;
46222;SDS011;31943;51.410;7.564;2023-05-14T12:30:41;1.48;;;1.20;;
46222;SDS011;31943;51.410;7.564;2023-05-14T12:33:06;1.73;;;1.13;;
46222;SDS011;31943;51.410;7.564;2023-05-14T12:35:32;1.65;;;1.23;;
46222;SDS011;31943;51.410;7.564;2023-05-14T12:37:58;1.20;;;1.10;;
46222;SDS011;31943;51.410;7.564;2023-05-14T12:40:23;2.83;;;1.48;;
46222;SDS011;31943;51.410;7.564;2023-05-14T12:42:54;1.38;;;1.27;;
46222;SDS011;31943;51.410;7.564;2023-05-14T12:45:21;2.08;;;1.10;;
46222;SDS011;31943;51.410;7.564;2023-05-14T12:47:47;1.38;;;1.00;;
46222;SDS011;31943;51.410;7.564;2023-05-14T12:50:14;1.35;;;1.10;;
46222;SDS011;31943;51.410;7.564;2023-05-14T12:52:40;1.17;;;1.05;;
46222;SDS011;31943;51.410;7.564;2023-05-14T12:55:06;1.98;;;1.20;;
46222;SDS011;31943;51.410;7.564;2023-05-14T12:57:33;1.23;;;1.13;;
46222;SDS011;31943;51.410;7.564;2023-05-14T13:00:00;2.00;;;1.25;;
46222;SDS011;31943;51.410;7.564;2023-05-14T13:02:26;1.42;;;1.10;;
46222;SDS011;31943;51.410;7.564;2023-05-14T13:04:52;2.00;;;1.10;;
46222;SDS011;31943;51.410;7.564;2023-05-14T13:07:18;0.80;;;0.80;;
46222;SDS011;31943;51.410;7.564;2023-05-14T13:09:44;2.38;;;0.95;;
46222;SDS011;31943;51.410;7.564;2023-05-14T13:12:09;2.42;;;1.05;;
46222;SDS011;31943;51.410;7.564;2023-05-14T13:14:35;1.42;;;0.95;;
46222;SDS011;31943;51.410;7.564;2023-05-14T13:17:02;1.05;;;0.90;;
46222;SDS011;31943;51.410;7.564;2023-05-14T13:19:28;2.35;;;0.90;;
46222;SDS011;31943;51.410;7.564;2023-05-14T13:21:54;0.98;;;0.85;;
46222;SDS011;31943;51.410;7.564;2023-05-14T13:24:19;1.98;;;0.77;;
46222;SDS011;31943;51.410;7.564;2023-05-14T13:26:46;1.45;;;0.65;;
46222;SDS011;31943;51.410;7.564;2023-05-14T13:29:12;1.83;;;0.80;;
46222;SDS011;31943;51.410;7.564;2023-05-14T13:31:37;0.80;;;0.80;;
46222;SDS011;31943;51.410;7.564;2023-05-14T13:34:05;0.70;;;0.68;;
46222;SDS011;31943;51.410;7.564;2023-05-14T13:36:31;1.10;;;0.60;;
46222;SDS011;31943;51.410;7.564;2023-05-14T13:38:57;1.58;;;0.90;;
46222;SDS011;31943;51.410;7.564;2023-05-14T13:41:24;1.08;;;0.70;;
46222;SDS011;31943;51.410;7.564;2023-05-14T13:43:49;0.95;;;0.77;;
46222;SDS011;31943;51.410;7.564;2023-05-14T13:46:17;0.80;;;0.80;;
46222;SDS011;31943;51.410;7.564;2023-05-14T13:48:42;1.15;;;0.82;;
46222;SDS011;31943;51.410;7.564;2023-05-14T13:51:10;1.48;;;0.63;;
46222;SDS011;31943;51.410;7.564;2023-05-14T13:53:36;1.00;;;0.80;;
46222;SDS011;31943;51.410;7.564;2023-05-14T13:56:01;1.27;;;0.90;;
46222;SDS011;31943;51.410;7.564;2023-05-14T13:58:27;2.58;;;0.77;;
46222;SDS011;31943;51.410;7.564;2023-05-14T14:00:53;0.70;;;0.70;;
46222;SDS011;31943;51.410;7.564;2023-05-14T14:03:18;1.88;;;0.90;;
46222;SDS011;31943;51.410;7.564;2023-05-14T14:05:44;1.52;;;0.82;;
46222;SDS011;31943;51.410;7.564;2023-05-14T14:08:11;1.02;;;0.90;;
46222;SDS011;31943;51.410;7.564;2023-05-14T14:10:37;0.82;;;0.73;;
46222;SDS011;31943;51.410;7.564;2023-05-14T14:13:03;1.00;;;0.70;;
46222;SDS011;31943;51.410;7.564;2023-05-14T14:15:28;1.73;;;0.90;;
46222;SDS011;31943;51.410;7.564;2023-05-14T14:17:54;3.63;;;1.00;;
46222;SDS011;31943;51.410;7.564;2023-05-14T14:20:20;2.13;;;0.95;;
46222;SDS011;31943;51.410;7.564;2023-05-14T14:22:45;1.27;;;0.85;;
46222;SDS011;31943;51.410;7.564;2023-05-14T14:25:13;1.48;;;0.90;;
46222;SDS011;31943;51.410;7.564;2023-05-14T14:27:38;1.38;;;1.08;;
46222;SDS011;31943;51.410;7.564;2023-05-14T14:30:06;1.45;;;0.95;;
46222;SDS011;31943;51.410;7.564;2023-05-14T14:32:33;1.00;;;0.90;;
46222;SDS011;31943;51.410;7.564;2023-05-14T14:34:58;1.08;;;0.80;;
46222;SDS011;31943;51.410;7.564;2023-05-14T14:37:24;1.73;;;0.60;;
46222;SDS011;31943;51.410;7.564;2023-05-14T14:39:52;1.65;;;0.75;;
46222;SDS011;31943;51.410;7.564;2023-05-14T14:42:19;1.00;;;0.80;;